Patton, California
Current Conditions -  °F | °C
As of 3:48 PM on Friday 19 Dec 2014 (Local Time) from KSBD Reporting Station
Broken Clouds Broken Clouds  
Wind Chill: 59°   Ceiling: 15000
Heat Index: 59°   Visibility: 10mi
Dew Point: 39°   Wind: 5mph
Humidity: 48%   Direction: 240°WSW
Pressure: 30.15"   Gusts: NA
Location:  34.14°N, 117.22°W
Report Text: KSBD 192348Z 24004KT 10SM BKN150 15/04 A3015
Loading
Personal Weather Stations






























Interactive Weather Map New forecast layout! Learn more

10-Day Weather Forecast

Advertisements
Track Severe Weather on mobile